createdAt,value
2019-02-10T00:01:00.124Z,18.48
2019-02-10T00:01:59.101Z,18.47
2019-02-10T00:02:59.162Z,18.47
2019-02-10T00:03:58.566Z,18.46
2019-02-10T00:05:00.461Z,18.47
2019-02-10T00:05:59.114Z,18.45
2019-02-10T00:06:58.646Z,18.45
2019-02-10T00:07:58.929Z,18.44
2019-02-10T00:08:58.868Z,18.43
2019-02-10T00:09:58.855Z,18.44
2019-02-10T00:10:59.066Z,18.43
2019-02-10T00:11:58.468Z,18.41
2019-02-10T00:12:59.950Z,18.41
2019-02-10T00:13:58.525Z,18.41
2019-02-10T00:14:58.990Z,18.4
2019-02-10T00:15:58.613Z,18.4
2019-02-10T00:16:59.339Z,18.4
2019-02-10T00:17:58.683Z,18.39
2019-02-10T00:18:58.885Z,18.4
2019-02-10T00:19:59.099Z,18.38
2019-02-10T00:20:58.987Z,18.38
2019-02-10T00:21:59.115Z,18.38
2019-02-10T00:22:58.636Z,18.38
2019-02-10T00:23:59.093Z,18.38
2019-02-10T00:24:58.429Z,18.38
2019-02-10T00:25:59.138Z,18.37
2019-02-10T00:26:59.079Z,18.36
2019-02-10T00:27:59.968Z,18.36
2019-02-10T00:28:58.753Z,18.35
2019-02-10T00:29:59.192Z,18.34
2019-02-10T00:30:58.970Z,18.34
2019-02-10T00:31:58.486Z,18.34
2019-02-10T00:32:59.244Z,18.34
2019-02-10T00:33:59.856Z,18.33
2019-02-10T00:34:59.616Z,18.33
2019-02-10T00:36:00.278Z,18.33
2019-02-10T00:36:58.970Z,18.33
2019-02-10T00:37:59.230Z,18.32
2019-02-10T00:38:58.588Z,18.31
2019-02-10T00:39:58.604Z,18.32
2019-02-10T00:40:58.944Z,18.32
2019-02-10T00:41:59.542Z,18.31
2019-02-10T00:42:59.069Z,18.3
2019-02-10T00:43:58.899Z,18.3
2019-02-10T00:44:58.772Z,18.3
2019-02-10T00:45:58.877Z,18.3
2019-02-10T00:46:59.104Z,18.29
2019-02-10T00:47:59.583Z,18.29
2019-02-10T00:48:58.759Z,18.28
2019-02-10T00:49:58.702Z,18.28
2019-02-10T00:50:58.854Z,18.28
2019-02-10T00:51:58.628Z,18.28
2019-02-10T00:52:58.686Z,18.27
2019-02-10T00:53:58.689Z,18.27
2019-02-10T00:54:59.354Z,18.27
2019-02-10T00:55:58.755Z,18.27
2019-02-10T00:56:58.860Z,18.26
2019-02-10T00:57:58.335Z,18.25
2019-02-10T00:58:58.862Z,18.24
2019-02-10T00:59:59.187Z,18.25
2019-02-10T01:00:59.704Z,18.24
2019-02-10T01:01:59.016Z,18.24
2019-02-10T01:02:58.573Z,18.24
2019-02-10T01:03:58.355Z,18.24
2019-02-10T01:04:58.342Z,18.23
2019-02-10T01:05:59.126Z,18.23
2019-02-10T01:06:59.033Z,18.22
2019-02-10T01:07:58.948Z,18.22
2019-02-10T01:08:58.982Z,18.22
2019-02-10T01:09:59.844Z,18.23
2019-02-10T01:11:00.415Z,18.23
2019-02-10T01:11:58.763Z,18.21
2019-02-10T01:12:58.389Z,18.21
2019-02-10T01:13:58.778Z,18.21
2019-02-10T01:14:58.279Z,18.21
2019-02-10T01:15:59.097Z,18.2
2019-02-10T01:16:58.817Z,18.2
2019-02-10T01:17:58.701Z,18.2
2019-02-10T01:18:59.034Z,18.19
2019-02-10T01:19:58.602Z,18.18
2019-02-10T01:20:58.939Z,18.18
2019-02-10T01:22:00.082Z,18.18
2019-02-10T01:22:58.854Z,18.17
2019-02-10T01:23:58.395Z,18.18
2019-02-10T01:24:59.046Z,18.17
2019-02-10T01:25:58.441Z,18.17
2019-02-10T01:26:58.816Z,18.17
2019-02-10T01:27:58.809Z,18.15
2019-02-10T01:28:58.779Z,18.17
2019-02-10T01:29:58.945Z,18.15
2019-02-10T01:30:58.548Z,18.16
2019-02-10T01:31:58.476Z,18.16
2019-02-10T01:32:58.897Z,18.16
2019-02-10T01:33:58.301Z,18.16
2019-02-10T01:34:59.513Z,18.14
2019-02-10T01:35:59.079Z,18.14
2019-02-10T01:36:58.895Z,18.13
2019-02-10T01:37:58.729Z,18.14
2019-02-10T01:38:58.784Z,18.14
2019-02-10T01:39:58.869Z,18.12
2019-02-10T01:40:59.892Z,18.13
2019-02-10T01:41:59.866Z,18.12
2019-02-10T01:42:58.373Z,18.12
2019-02-10T01:43:58.473Z,18.11
2019-02-10T01:44:58.688Z,18.1
2019-02-10T01:45:58.752Z,18.09
2019-02-10T01:46:59.130Z,18.1
2019-02-10T01:47:59.020Z,18.1
2019-02-10T01:48:59.354Z,18.09
2019-02-10T01:49:59.466Z,18.08
2019-02-10T01:51:00.316Z,18.08
2019-02-10T01:51:58.654Z,18.08
2019-02-10T01:52:58.778Z,18.07
2019-02-10T01:53:58.441Z,18.07
2019-02-10T01:54:58.921Z,18.06
2019-02-10T01:55:59.586Z,18.06
2019-02-10T01:56:58.940Z,18.06
2019-02-10T01:57:58.759Z,18.06
2019-02-10T01:58:58.903Z,18.05
2019-02-10T01:59:58.385Z,18.05
2019-02-10T02:00:58.486Z,18.05
2019-02-10T02:01:58.315Z,18.05
2019-02-10T02:02:58.461Z,18.04
2019-02-10T02:03:59.016Z,18.05
2019-02-10T02:04:58.363Z,18.03
2019-02-10T02:05:59.259Z,18.04
2019-02-10T02:06:58.273Z,18.04
2019-02-10T02:07:59.866Z,18.03
2019-02-10T02:08:58.854Z,18.03
2019-02-10T02:09:58.763Z,18.01
2019-02-10T02:10:58.984Z,18.02
2019-02-10T02:11:59.070Z,18.01
2019-02-10T02:12:59.716Z,18.01
2019-02-10T02:13:58.540Z,18
2019-02-10T02:14:59.061Z,18.01
2019-02-10T02:15:59.009Z,18.01
2019-02-10T02:16:58.468Z,18.01
2019-02-10T02:17:58.469Z,18.01
2019-02-10T02:18:58.313Z,18
2019-02-10T02:19:58.758Z,18.01
2019-02-10T02:20:59.096Z,18
2019-02-10T02:21:58.730Z,18
2019-02-10T02:22:59.483Z,18
2019-02-10T02:23:58.756Z,17.99
2019-02-10T02:24:58.903Z,17.98
2019-02-10T02:25:58.270Z,17.98
2019-02-10T02:26:58.778Z,17.97
2019-02-10T02:27:58.564Z,17.97
2019-02-10T02:28:58.474Z,17.97
2019-02-10T02:29:58.282Z,17.98
2019-02-10T02:30:59.319Z,17.97
2019-02-10T02:31:59.037Z,17.97
2019-02-10T02:32:58.624Z,17.97
2019-02-10T02:33:59.052Z,17.97
2019-02-10T02:34:58.548Z,17.96
2019-02-10T02:35:58.849Z,17.96
2019-02-10T02:37:07.553Z,17.96
2019-02-10T02:37:58.612Z,17.95
2019-02-10T02:38:59.450Z,17.95
2019-02-10T02:39:58.616Z,17.94
2019-02-10T02:40:59.182Z,17.94
2019-02-10T02:41:58.390Z,17.94
2019-02-10T02:42:58.273Z,17.93
2019-02-10T02:43:58.631Z,17.93
2019-02-10T02:44:58.914Z,17.93
2019-02-10T02:45:58.919Z,17.93
2019-02-10T02:46:59.030Z,17.93
2019-02-10T02:48:00.394Z,17.92
2019-02-10T02:48:58.260Z,17.93
2019-02-10T02:49:58.379Z,17.92
2019-02-10T02:50:58.192Z,17.92
2019-02-10T02:52:00.313Z,17.92
2019-02-10T02:52:58.776Z,17.91
2019-02-10T02:53:58.670Z,17.9
2019-02-10T02:54:58.271Z,17.9
2019-02-10T02:55:58.800Z,17.9
2019-02-10T02:56:59.053Z,17.9
2019-02-10T02:58:00.382Z,17.9
2019-02-10T02:58:58.359Z,17.89
2019-02-10T02:59:58.381Z,17.9
2019-02-10T03:00:58.707Z,17.9
2019-02-10T03:01:58.731Z,17.89
2019-02-10T03:02:58.740Z,17.87
2019-02-10T03:03:59.209Z,17.88
2019-02-10T03:04:58.428Z,17.87
2019-02-10T03:05:58.579Z,17.88
2019-02-10T03:06:58.371Z,17.87
2019-02-10T03:07:59.092Z,17.86
2019-02-10T03:08:59.282Z,17.86
2019-02-10T03:09:58.694Z,17.86
2019-02-10T03:10:58.534Z,17.86
2019-02-10T03:11:58.840Z,17.86
2019-02-10T03:12:58.710Z,17.85
2019-02-10T03:13:58.416Z,17.86
2019-02-10T03:14:59.091Z,17.85
2019-02-10T03:15:59.098Z,17.85
2019-02-10T03:16:59.051Z,17.84
2019-02-10T03:17:58.290Z,17.85
2019-02-10T03:18:58.967Z,17.85
2019-02-10T03:19:59.608Z,17.85
2019-02-10T03:20:59.073Z,17.85
2019-02-10T03:21:59.012Z,17.84
2019-02-10T03:22:58.367Z,17.84
2019-02-10T03:23:58.420Z,17.84
2019-02-10T03:24:59.425Z,17.83
2019-02-10T03:25:58.707Z,17.83
2019-02-10T03:26:59.320Z,17.82
2019-02-10T03:27:59.342Z,17.82
2019-02-10T03:28:58.416Z,17.81
2019-02-10T03:29:58.727Z,17.81
2019-02-10T03:30:59.359Z,17.81
2019-02-10T03:31:58.756Z,17.8
2019-02-10T03:32:58.749Z,17.8
2019-02-10T03:33:58.829Z,17.79
2019-02-10T03:34:59.391Z,17.8
2019-02-10T03:35:59.238Z,17.81
2019-02-10T03:36:58.382Z,17.81
2019-02-10T03:38:00.304Z,17.8
2019-02-10T03:38:59.203Z,17.8
2019-02-10T03:39:59.011Z,17.79
2019-02-10T03:40:59.111Z,17.79
2019-02-10T03:41:58.804Z,17.79
2019-02-10T03:42:59.127Z,17.78
2019-02-10T03:43:59.328Z,17.78
2019-02-10T03:44:58.357Z,17.78
2019-02-10T03:45:58.521Z,17.79
2019-02-10T03:46:58.894Z,17.79
2019-02-10T03:47:58.373Z,17.78
2019-02-10T03:48:58.513Z,17.77
2019-02-10T03:49:58.460Z,17.76
2019-02-10T03:50:58.764Z,17.76
2019-02-10T03:51:59.072Z,17.77
2019-02-10T03:52:58.407Z,17.75
2019-02-10T03:53:58.723Z,17.75
2019-02-10T03:54:58.383Z,17.76
2019-02-10T03:55:58.599Z,17.75
2019-02-10T03:56:58.421Z,17.75
2019-02-10T03:57:59.145Z,17.75
2019-02-10T03:58:58.631Z,17.75
2019-02-10T03:59:58.445Z,17.74
2019-02-10T04:00:59.778Z,17.74
2019-02-10T04:01:58.767Z,17.74
2019-02-10T04:02:59.998Z,17.73
2019-02-10T04:03:59.126Z,17.73
2019-02-10T04:04:58.176Z,17.73
2019-02-10T04:05:58.615Z,17.73
2019-02-10T04:06:58.569Z,17.72
2019-02-10T04:08:00.257Z,17.72
2019-02-10T04:08:59.423Z,17.72
2019-02-10T04:09:58.374Z,17.73
2019-02-10T04:10:58.311Z,17.71
2019-02-10T04:11:59.228Z,17.71
2019-02-10T04:12:58.727Z,17.71
2019-02-10T04:14:00.290Z,17.7
2019-02-10T04:14:58.674Z,17.7
2019-02-10T04:15:59.172Z,17.7
2019-02-10T04:17:00.324Z,17.71
2019-02-10T04:17:58.723Z,17.7
2019-02-10T04:18:58.373Z,17.7
2019-02-10T04:19:58.528Z,17.69
2019-02-10T04:20:58.588Z,17.68
2019-02-10T04:21:59.063Z,17.68
2019-02-10T04:22:58.380Z,17.68
2019-02-10T04:23:58.235Z,17.69
2019-02-10T04:24:58.657Z,17.69
2019-02-10T04:25:58.429Z,17.69
2019-02-10T04:26:58.516Z,17.67
2019-02-10T04:27:59.338Z,17.68
2019-02-10T04:28:58.834Z,17.68
2019-02-10T04:29:58.354Z,17.68
2019-02-10T04:30:59.049Z,17.67
2019-02-10T04:31:58.793Z,17.67
2019-02-10T04:32:59.097Z,17.66
2019-02-10T04:33:59.185Z,17.66
2019-02-10T04:34:58.682Z,17.66
2019-02-10T04:35:58.419Z,17.66
2019-02-10T04:36:58.949Z,17.66
2019-02-10T04:37:58.475Z,17.65
2019-02-10T04:38:58.545Z,17.65
2019-02-10T04:40:00.380Z,17.65
2019-02-10T04:40:58.453Z,17.65
2019-02-10T04:41:58.674Z,17.65
2019-02-10T04:42:58.773Z,17.65
2019-02-10T04:43:58.616Z,17.66
2019-02-10T04:44:58.438Z,17.66
2019-02-10T04:45:59.101Z,17.66
2019-02-10T04:46:59.022Z,17.66
2019-02-10T04:47:59.309Z,17.66
2019-02-10T04:48:58.614Z,17.66
2019-02-10T04:49:58.813Z,17.67
2019-02-10T04:50:58.832Z,17.68
2019-02-10T04:51:58.641Z,17.68
2019-02-10T04:52:58.428Z,17.68
2019-02-10T04:53:58.907Z,17.68
2019-02-10T04:54:58.345Z,17.69
2019-02-10T04:55:58.385Z,17.69
2019-02-10T04:56:58.603Z,17.7
2019-02-10T04:57:58.680Z,17.71
2019-02-10T04:58:58.611Z,17.72
2019-02-10T05:00:00.371Z,17.72
2019-02-10T05:00:58.232Z,17.72
2019-02-10T05:01:59.420Z,17.73
2019-02-10T05:02:58.453Z,17.74
2019-02-10T05:03:58.254Z,17.75
2019-02-10T05:04:58.919Z,17.75
2019-02-10T05:05:58.392Z,17.77
2019-02-10T05:06:58.635Z,17.77
2019-02-10T05:07:58.386Z,17.79
2019-02-10T05:09:00.144Z,17.79
2019-02-10T05:09:58.698Z,17.8
2019-02-10T05:11:00.350Z,17.82
2019-02-10T05:11:58.590Z,17.83
2019-02-10T05:12:58.773Z,17.85
2019-02-10T05:13:58.711Z,17.87
2019-02-10T05:14:58.721Z,17.88
2019-02-10T05:15:58.520Z,17.9
2019-02-10T05:16:58.501Z,17.91
2019-02-10T05:17:58.735Z,17.92
2019-02-10T05:18:58.521Z,17.94
2019-02-10T05:20:00.230Z,17.96
2019-02-10T05:20:59.157Z,17.98
2019-02-10T05:21:58.953Z,17.99
2019-02-10T05:23:00.152Z,18.01
2019-02-10T05:24:03.342Z,18.02
2019-02-10T05:25:00.095Z,18.04
2019-02-10T05:25:58.685Z,18.05
2019-02-10T05:26:58.600Z,18.07
2019-02-10T05:27:59.592Z,18.08
2019-02-10T05:28:58.694Z,18.11
2019-02-10T05:29:58.910Z,18.12
2019-02-10T05:30:58.504Z,18.12
2019-02-10T05:31:58.347Z,18.14
2019-02-10T05:32:58.358Z,18.16
2019-02-10T05:33:58.566Z,18.18
2019-02-10T05:34:59.056Z,18.19
2019-02-10T05:35:58.651Z,18.2
2019-02-10T05:36:58.750Z,18.22
2019-02-10T05:38:04.093Z,18.24
2019-02-10T05:38:58.354Z,18.24
2019-02-10T05:39:58.205Z,18.25
2019-02-10T05:40:58.254Z,18.27
2019-02-10T05:41:58.514Z,18.28
2019-02-10T05:42:58.493Z,18.29
2019-02-10T05:43:58.171Z,18.3
2019-02-10T05:44:58.771Z,18.31
2019-02-10T05:45:58.603Z,18.32
2019-02-10T05:46:58.426Z,18.34
2019-02-10T05:47:58.922Z,18.34
2019-02-10T05:48:58.742Z,18.35
2019-02-10T05:49:58.551Z,18.36
2019-02-10T05:50:58.561Z,18.38
2019-02-10T05:51:58.420Z,18.38
2019-02-10T05:52:58.719Z,18.39
2019-02-10T05:53:58.897Z,18.4
2019-02-10T05:54:59.182Z,18.4
2019-02-10T05:55:58.785Z,18.42
2019-02-10T05:57:00.180Z,18.42
2019-02-10T05:57:58.793Z,18.44
2019-02-10T05:58:58.297Z,18.44
2019-02-10T05:59:58.845Z,18.46
2019-02-10T06:01:00.280Z,18.47
2019-02-10T06:01:58.623Z,18.48
2019-02-10T06:02:59.166Z,18.48
2019-02-10T06:03:58.756Z,18.5
2019-02-10T06:04:59.922Z,18.51
2019-02-10T06:05:59.103Z,18.52
2019-02-10T06:06:58.322Z,18.53
2019-02-10T06:07:58.672Z,18.53
2019-02-10T06:08:58.903Z,18.54
2019-02-10T06:09:59.614Z,18.57
2019-02-10T06:10:58.274Z,18.57
2019-02-10T06:11:59.624Z,18.49
2019-02-10T06:12:58.169Z,18.44
2019-02-10T06:13:58.373Z,18.38
2019-02-10T06:14:58.837Z,18.34
2019-02-10T06:15:59.222Z,18.28
2019-02-10T06:16:58.836Z,18.25
2019-02-10T06:17:58.959Z,18.21
2019-02-10T06:18:58.865Z,18.18
2019-02-10T06:19:59.274Z,18.15
2019-02-10T06:20:59.193Z,18.14
2019-02-10T06:21:58.967Z,18.09
2019-02-10T06:22:58.687Z,18.08
2019-02-10T06:23:58.355Z,18.06
2019-02-10T06:24:58.325Z,18.06
2019-02-10T06:25:58.587Z,18.04
2019-02-10T06:26:58.694Z,18.08
2019-02-10T06:27:58.263Z,18.08
2019-02-10T06:28:58.278Z,18.12
2019-02-10T06:29:58.618Z,18.15
2019-02-10T06:30:58.617Z,18.18
2019-02-10T06:31:59.045Z,18.22
2019-02-10T06:32:58.190Z,18.24
2019-02-10T06:33:58.384Z,18.27
2019-02-10T06:34:59.292Z,18.29
2019-02-10T06:35:58.489Z,18.31
2019-02-10T06:36:58.325Z,18.33
2019-02-10T06:37:58.895Z,18.36
2019-02-10T06:38:58.792Z,18.38
2019-02-10T06:40:00.348Z,18.4
2019-02-10T06:40:58.587Z,18.41
2019-02-10T06:41:58.700Z,18.44
2019-02-10T06:42:59.817Z,18.45
2019-02-10T06:43:59.030Z,18.47
2019-02-10T06:44:58.632Z,18.48
2019-02-10T06:45:59.231Z,18.5
2019-02-10T06:46:58.473Z,18.52
2019-02-10T06:47:59.898Z,18.53
2019-02-10T06:48:58.971Z,18.55
2019-02-10T06:49:58.676Z,18.56
2019-02-10T06:50:58.355Z,18.58
2019-02-10T06:51:58.286Z,18.58
2019-02-10T06:52:58.119Z,18.6
2019-02-10T06:53:58.268Z,18.61
2019-02-10T06:54:59.016Z,18.63
2019-02-10T06:55:59.212Z,18.63
2019-02-10T06:56:58.854Z,18.66
2019-02-10T06:57:58.231Z,18.66
2019-02-10T06:58:58.238Z,18.67
2019-02-10T06:59:59.157Z,18.69
2019-02-10T07:00:58.223Z,18.7
2019-02-10T07:01:58.089Z,18.7
2019-02-10T07:02:58.776Z,18.71
2019-02-10T07:03:58.997Z,18.72
2019-02-10T07:04:58.680Z,18.74
2019-02-10T07:05:58.692Z,18.75
2019-02-10T07:07:00.151Z,18.76
2019-02-10T07:07:59.224Z,18.77
2019-02-10T07:08:58.224Z,18.77
2019-02-10T07:09:58.365Z,18.78
2019-02-10T07:10:58.616Z,18.8
2019-02-10T07:12:00.105Z,18.82
2019-02-10T07:12:58.614Z,18.82
2019-02-10T07:13:58.365Z,18.82
2019-02-10T07:14:58.658Z,18.84
2019-02-10T07:15:58.563Z,18.86
2019-02-10T07:16:58.554Z,18.86
2019-02-10T07:17:59.199Z,18.85
2019-02-10T07:18:58.405Z,18.87
2019-02-10T07:19:58.664Z,18.88
2019-02-10T07:20:58.258Z,18.87
2019-02-10T07:21:58.681Z,18.89
2019-02-10T07:22:58.490Z,18.9
2019-02-10T07:23:59.091Z,18.89
2019-02-10T07:24:58.244Z,18.9
2019-02-10T07:25:58.072Z,18.9
2019-02-10T07:26:58.392Z,18.9
2019-02-10T07:28:00.052Z,18.92
2019-02-10T07:28:58.264Z,18.92
2019-02-10T07:29:59.242Z,18.93
2019-02-10T07:30:58.861Z,18.92
2019-02-10T07:31:58.511Z,18.93
2019-02-10T07:32:58.583Z,18.94
2019-02-10T07:33:59.083Z,18.94
2019-02-10T07:35:00.246Z,18.94
2019-02-10T07:35:58.702Z,18.95
2019-02-10T07:36:58.580Z,18.96
2019-02-10T07:37:58.597Z,18.96
2019-02-10T07:38:59.015Z,18.97
2019-02-10T07:39:58.613Z,18.97
2019-02-10T07:40:58.437Z,18.97
2019-02-10T07:41:58.731Z,18.99
2019-02-10T07:42:58.647Z,19
2019-02-10T07:43:58.449Z,18.99
2019-02-10T07:44:58.270Z,19
2019-02-10T07:45:58.573Z,19.01
2019-02-10T07:46:58.217Z,19.01
2019-02-10T07:47:58.625Z,19.02
2019-02-10T07:48:58.656Z,19.02
2019-02-10T07:49:59.086Z,19.03
2019-02-10T07:50:59.122Z,19.04
2019-02-10T07:51:58.799Z,19.05
2019-02-10T07:53:00.360Z,19.06
2019-02-10T07:53:58.934Z,19.05
2019-02-10T07:54:58.638Z,19.05
2019-02-10T07:55:58.144Z,19.07
2019-02-10T07:56:58.865Z,19.06
2019-02-10T07:57:58.854Z,19.07
2019-02-10T07:58:58.528Z,19.07
2019-02-10T07:59:58.384Z,19.07
2019-02-10T08:00:58.785Z,19.08
2019-02-10T08:01:58.674Z,19.08
2019-02-10T08:02:58.483Z,19.09
2019-02-10T08:03:58.261Z,19.09
2019-02-10T08:04:58.989Z,19.09
2019-02-10T08:05:59.779Z,19.08
2019-02-10T08:06:58.705Z,19.09
2019-02-10T08:07:58.592Z,19.1
2019-02-10T08:08:58.227Z,19.1
2019-02-10T08:09:58.337Z,19.1
2019-02-10T08:10:58.270Z,19.11
2019-02-10T08:11:58.658Z,19.11
2019-02-10T08:13:00.201Z,19.12
2019-02-10T08:13:58.385Z,19.12
2019-02-10T08:14:58.196Z,19.12
2019-02-10T08:15:58.741Z,19.12
2019-02-10T08:16:58.169Z,19.12
2019-02-10T08:17:58.580Z,19.13
2019-02-10T08:18:58.580Z,19.13
2019-02-10T08:19:58.723Z,19.15
2019-02-10T08:20:58.700Z,19.14
2019-02-10T08:21:58.217Z,19.14
2019-02-10T08:22:59.524Z,19.15
2019-02-10T08:23:58.624Z,19.15
2019-02-10T08:25:00.007Z,19.15
2019-02-10T08:25:58.435Z,19.16
2019-02-10T08:26:58.743Z,19.17
2019-02-10T08:27:59.373Z,19.17
2019-02-10T08:28:59.169Z,19.18
2019-02-10T08:29:58.745Z,19.18
2019-02-10T08:30:58.077Z,19.18
2019-02-10T08:31:58.783Z,19.19
2019-02-10T08:32:59.223Z,19.2
2019-02-10T08:33:58.706Z,19.19
2019-02-10T08:34:58.818Z,19.2
2019-02-10T08:36:00.077Z,19.21
2019-02-10T08:36:58.163Z,19.22
2019-02-10T08:37:58.459Z,19.21
2019-02-10T08:38:58.936Z,19.21
2019-02-10T08:39:58.192Z,19.22
2019-02-10T08:40:59.142Z,19.21
2019-02-10T08:41:59.162Z,19.23
2019-02-10T08:42:58.757Z,19.23
2019-02-10T08:43:58.464Z,19.23
2019-02-10T08:44:58.864Z,19.23
2019-02-10T08:45:58.354Z,19.25
2019-02-10T08:46:58.396Z,19.25
2019-02-10T08:47:58.360Z,19.25
2019-02-10T08:48:58.440Z,19.26
2019-02-10T08:49:58.737Z,19.27
2019-02-10T08:50:58.917Z,19.27
2019-02-10T08:51:58.096Z,19.28
2019-02-10T08:53:00.047Z,19.28
2019-02-10T08:54:00.209Z,19.28
2019-02-10T08:54:58.338Z,19.28
2019-02-10T08:55:58.844Z,19.28
2019-02-10T08:56:59.823Z,19.29
2019-02-10T08:57:58.656Z,19.29
2019-02-10T08:58:58.665Z,19.3
2019-02-10T08:59:58.698Z,19.31
2019-02-10T09:00:58.264Z,19.29
2019-02-10T09:01:59.898Z,19.3
2019-02-10T09:02:58.326Z,19.3
2019-02-10T09:03:58.393Z,19.3
2019-02-10T09:04:58.597Z,19.3
2019-02-10T09:05:58.649Z,19.3
2019-02-10T09:06:59.539Z,19.29
2019-02-10T09:07:58.835Z,19.3
2019-02-10T09:09:02.537Z,19.3
2019-02-10T09:10:00.266Z,19.3
2019-02-10T09:10:58.250Z,19.29
2019-02-10T09:11:58.796Z,19.3
2019-02-10T09:12:58.983Z,19.31
2019-02-10T09:13:58.617Z,19.3
2019-02-10T09:14:58.796Z,19.3
2019-02-10T09:15:59.911Z,19.3
2019-02-10T09:16:58.156Z,19.3
2019-02-10T09:17:59.960Z,19.3
2019-02-10T09:18:58.359Z,19.31
2019-02-10T09:19:59.114Z,19.3
2019-02-10T09:20:58.729Z,19.32
2019-02-10T09:21:58.064Z,19.32
2019-02-10T09:22:58.492Z,19.31
2019-02-10T09:23:58.267Z,19.31
2019-02-10T09:24:58.603Z,19.31
2019-02-10T09:25:58.222Z,19.32
2019-02-10T09:26:58.688Z,19.32
2019-02-10T09:27:58.665Z,19.32
2019-02-10T09:28:58.265Z,19.32
2019-02-10T09:29:58.980Z,19.33
2019-02-10T09:30:59.980Z,19.32
2019-02-10T09:31:58.239Z,19.32
2019-02-10T09:32:58.914Z,19.32
2019-02-10T09:33:58.916Z,19.33
2019-02-10T09:35:00.187Z,19.32
2019-02-10T09:35:58.446Z,19.32
2019-02-10T09:36:58.739Z,19.32
2019-02-10T09:37:58.241Z,19.32
2019-02-10T09:38:58.363Z,19.32
2019-02-10T09:39:58.441Z,19.38
2019-02-10T09:41:00.120Z,19.39
2019-02-10T09:41:58.267Z,19.4
2019-02-10T09:42:58.384Z,19.4
2019-02-10T09:43:58.229Z,19.42
2019-02-10T09:44:58.897Z,19.46
2019-02-10T09:45:58.499Z,19.45
2019-02-10T09:46:58.518Z,19.45
2019-02-10T09:47:58.933Z,19.47
2019-02-10T09:48:59.690Z,19.48
2019-02-10T09:49:58.199Z,19.48
2019-02-10T09:50:58.525Z,19.5
2019-02-10T09:51:58.079Z,19.52
2019-02-10T09:52:58.887Z,19.52
2019-02-10T09:53:58.403Z,19.53
2019-02-10T09:54:58.460Z,19.55
2019-02-10T09:55:58.543Z,19.56
2019-02-10T09:56:58.213Z,19.58
2019-02-10T09:57:59.989Z,19.58
2019-02-10T09:58:58.686Z,19.58
2019-02-10T09:59:58.378Z,19.58
2019-02-10T10:00:58.399Z,19.58
2019-02-10T10:01:58.739Z,19.6
2019-02-10T10:02:58.651Z,19.6
2019-02-10T10:03:58.682Z,19.6
2019-02-10T10:04:58.203Z,19.61
2019-02-10T10:05:58.297Z,19.62
2019-02-10T10:06:58.342Z,19.64
2019-02-10T10:07:58.455Z,19.63
2019-02-10T10:08:58.699Z,19.62
2019-02-10T10:09:58.199Z,19.62
2019-02-10T10:10:59.377Z,19.62
2019-02-10T10:11:59.197Z,19.61
2019-02-10T10:12:58.608Z,19.62
2019-02-10T10:13:58.610Z,19.62
2019-02-10T10:14:59.107Z,19.62
2019-02-10T10:15:58.189Z,19.62
2019-02-10T10:16:58.214Z,19.62
2019-02-10T10:17:58.745Z,19.63
2019-02-10T10:18:58.328Z,19.63
2019-02-10T10:19:58.652Z,19.63
2019-02-10T10:20:58.664Z,19.63
2019-02-10T10:21:58.534Z,19.64
2019-02-10T10:22:58.032Z,19.63
2019-02-10T10:23:59.982Z,19.64
2019-02-10T10:24:58.680Z,19.63
2019-02-10T10:25:58.168Z,19.64
2019-02-10T10:26:58.691Z,19.64
2019-02-10T10:27:58.297Z,19.63
2019-02-10T10:28:58.466Z,19.67
2019-02-10T10:29:58.239Z,19.66
2019-02-10T10:30:58.207Z,19.68
2019-02-10T10:31:58.285Z,19.69
2019-02-10T10:32:58.957Z,19.7
2019-02-10T10:33:58.424Z,19.7
2019-02-10T10:34:58.436Z,19.7
2019-02-10T10:35:58.662Z,19.71
2019-02-10T10:36:58.970Z,19.72
2019-02-10T10:37:58.668Z,19.74
2019-02-10T10:38:58.527Z,19.73
2019-02-10T10:39:58.345Z,19.76
2019-02-10T10:40:58.125Z,19.77
2019-02-10T10:42:00.034Z,19.78
2019-02-10T10:42:59.111Z,19.78
2019-02-10T10:43:58.339Z,19.8
2019-02-10T10:44:58.324Z,19.8
2019-02-10T10:45:58.658Z,19.8
2019-02-10T10:46:58.613Z,19.8
2019-02-10T10:47:58.179Z,19.8
2019-02-10T10:48:59.739Z,19.82
2019-02-10T10:49:58.090Z,19.81
2019-02-10T10:50:58.455Z,19.84
2019-02-10T10:51:58.793Z,19.83
2019-02-10T10:52:58.287Z,19.83
2019-02-10T10:54:00.023Z,19.83
2019-02-10T10:54:58.978Z,19.84
2019-02-10T10:55:59.030Z,19.84
2019-02-10T10:56:58.462Z,19.83
2019-02-10T10:57:59.113Z,19.85
2019-02-10T10:58:58.042Z,19.85
2019-02-10T10:59:58.433Z,19.85
2019-02-10T11:00:58.732Z,19.85
2019-02-10T11:01:59.734Z,19.86
2019-02-10T11:02:58.675Z,19.85
2019-02-10T11:03:58.442Z,19.86
2019-02-10T11:04:59.016Z,19.87
2019-02-10T11:06:00.440Z,19.88
2019-02-10T11:06:59.112Z,19.9
2019-02-10T11:07:58.407Z,19.89
2019-02-10T11:08:58.154Z,19.89
2019-02-10T11:09:58.946Z,19.89
2019-02-10T11:10:58.697Z,19.91
2019-02-10T11:11:58.164Z,19.94
2019-02-10T11:13:00.087Z,19.95
2019-02-10T11:13:58.920Z,19.95
2019-02-10T11:14:58.496Z,19.97
2019-02-10T11:15:59.538Z,19.96
2019-02-10T11:16:58.964Z,19.97
2019-02-10T11:17:58.552Z,19.98
2019-02-10T11:18:58.988Z,20
2019-02-10T11:19:59.382Z,20.03
2019-02-10T11:20:58.221Z,20.06
2019-02-10T11:21:58.235Z,20.09
2019-02-10T11:23:00.233Z,20.08
2019-02-10T11:23:58.604Z,20.09
2019-02-10T11:24:58.857Z,20.09
2019-02-10T11:25:58.759Z,20.09
2019-02-10T11:27:00.093Z,20.12
2019-02-10T11:27:58.569Z,20.12
2019-02-10T11:28:59.923Z,20.13
2019-02-10T11:29:58.490Z,20.12
2019-02-10T11:30:58.814Z,20.16
2019-02-10T11:31:59.009Z,20.18
2019-02-10T11:32:58.697Z,20.18
2019-02-10T11:33:58.524Z,20.18
2019-02-10T11:34:58.346Z,20.19
2019-02-10T11:35:58.246Z,20.19
2019-02-10T11:36:58.172Z,20.19
2019-02-10T11:37:58.047Z,20.2
2019-02-10T11:38:58.180Z,20.18
2019-02-10T11:39:58.321Z,20.2
2019-02-10T11:40:58.261Z,20.2
2019-02-10T11:41:58.275Z,20.2
2019-02-10T11:43:00.038Z,20.24
2019-02-10T11:43:58.262Z,20.17
2019-02-10T11:44:59.103Z,20.11
2019-02-10T11:45:58.715Z,20.1
2019-02-10T11:46:58.549Z,20.11
2019-02-10T11:47:58.730Z,20.1
2019-02-10T11:48:58.838Z,20.1
2019-02-10T11:49:58.653Z,20.1
2019-02-10T11:50:58.204Z,20.1
2019-02-10T11:51:58.455Z,20.1
2019-02-10T11:52:58.653Z,20.1
2019-02-10T11:53:58.218Z,20.1
2019-02-10T11:54:58.068Z,20.1
2019-02-10T11:56:00.181Z,20.1
2019-02-10T11:56:58.825Z,20.1
2019-02-10T11:57:58.208Z,20.1
2019-02-10T11:58:58.668Z,20.14
2019-02-10T11:59:58.148Z,20.14
2019-02-10T12:00:58.616Z,20.14
2019-02-10T12:01:58.926Z,20.15
2019-02-10T12:02:58.470Z,20.18
2019-02-10T12:03:58.119Z,20.18
2019-02-10T12:04:58.840Z,20.16
2019-02-10T12:05:58.181Z,20.14
2019-02-10T12:06:58.279Z,20.12
2019-02-10T12:07:59.168Z,20.13
2019-02-10T12:08:58.676Z,20.11
2019-02-10T12:09:58.749Z,20.1
2019-02-10T12:10:58.378Z,20.09
2019-02-10T12:11:58.442Z,20.08
2019-02-10T12:12:58.510Z,20.08
2019-02-10T12:14:00.225Z,20.07
2019-02-10T12:14:58.383Z,20.08
2019-02-10T12:15:58.735Z,20.08
2019-02-10T12:16:58.230Z,20.05
2019-02-10T12:17:58.178Z,20.05
2019-02-10T12:18:58.647Z,20.05
2019-02-10T12:19:58.270Z,20.02
2019-02-10T12:20:58.612Z,20.04
2019-02-10T12:21:58.670Z,20.03
2019-02-10T12:22:58.770Z,20.04
2019-02-10T12:23:58.202Z,20.02
2019-02-10T12:24:58.153Z,20.02
2019-02-10T12:25:58.697Z,20.01
2019-02-10T12:26:58.599Z,20.01
2019-02-10T12:27:59.018Z,20
2019-02-10T12:28:58.808Z,20
2019-02-10T12:29:58.199Z,19.99
2019-02-10T12:30:58.221Z,20
2019-02-10T12:31:58.096Z,19.99
2019-02-10T12:32:58.250Z,19.99
2019-02-10T12:33:58.231Z,20
2019-02-10T12:34:58.435Z,20
2019-02-10T12:35:59.478Z,19.99
2019-02-10T12:36:58.350Z,19.99
2019-02-10T12:37:58.655Z,19.98
2019-02-10T12:38:58.276Z,19.98
2019-02-10T12:39:59.732Z,19.99
2019-02-10T12:40:58.016Z,19.99
2019-02-10T12:41:58.605Z,20
2019-02-10T12:42:58.509Z,19.99
2019-02-10T12:43:59.103Z,20
2019-02-10T12:44:58.179Z,20
2019-02-10T12:45:58.644Z,20.01
2019-02-10T12:46:58.231Z,20.01
2019-02-10T12:47:58.274Z,20.01
2019-02-10T12:48:58.748Z,20
2019-02-10T12:49:58.117Z,20.01
2019-02-10T12:50:59.375Z,20.02
2019-02-10T12:51:58.225Z,20.01
2019-02-10T12:52:58.062Z,20.02
2019-02-10T12:53:58.288Z,20.01
2019-02-10T12:54:58.795Z,20.02
2019-02-10T12:55:58.212Z,20.03
2019-02-10T12:56:58.293Z,20.03
2019-02-10T12:57:58.124Z,20.03